createdAt,value
2022-10-18T00:00:21.164Z,102958.31
2022-10-18T00:02:48.248Z,102906.91
2022-10-18T00:05:15.490Z,102981.38
2022-10-18T00:07:42.705Z,102972.03
2022-10-18T00:10:10.329Z,102974.06
2022-10-18T00:12:38.472Z,102971.63
2022-10-18T00:15:07.578Z,102965.56
2022-10-18T00:17:35.793Z,102945.75
2022-10-18T00:20:03.233Z,102965.16
2022-10-18T00:22:30.886Z,102968.00
2022-10-18T00:24:58.194Z,102975.28
2022-10-18T00:27:25.522Z,102962.72
2022-10-18T00:29:53.886Z,102961.94
2022-10-18T00:32:21.170Z,102946.53
2022-10-18T00:34:48.425Z,102956.25
2022-10-18T00:37:15.492Z,102970.03
2022-10-18T00:39:42.722Z,102962.34
2022-10-18T00:42:18.352Z,102967.59
2022-10-18T00:44:45.857Z,102944.50
2022-10-18T00:47:16.603Z,102918.59
2022-10-18T00:49:52.133Z,102943.31
2022-10-18T00:52:28.152Z,102924.28
2022-10-18T00:54:56.967Z,102949.53
2022-10-18T00:57:25.884Z,102947.31
2022-10-18T00:59:53.847Z,102948.00
2022-10-18T01:02:21.786Z,102920.22
2022-10-18T01:04:49.512Z,102886.84
2022-10-18T01:07:25.998Z,102943.00
2022-10-18T01:10:08.291Z,102940.13
2022-10-18T01:13:40.458Z,102936.34
2022-10-18T01:16:24.341Z,102903.66
2022-10-18T01:19:10.397Z,102928.47
2022-10-18T01:21:50.379Z,102926.13
2022-10-18T01:24:41.149Z,102931.00
2022-10-18T01:27:36.371Z,102932.28
2022-10-18T01:30:41.196Z,102925.47
2022-10-18T01:33:25.865Z,102910.84
2022-10-18T01:36:19.539Z,102905.81
2022-10-18T01:38:51.243Z,102930.19
2022-10-18T01:41:21.853Z,102925.75
2022-10-18T01:43:53.784Z,102932.25
2022-10-18T01:46:23.952Z,102925.38
2022-10-18T01:48:52.853Z,102914.56
2022-10-18T01:51:24.717Z,102913.28
2022-10-18T01:53:51.777Z,102921.41
2022-10-18T01:56:28.432Z,102910.13
2022-10-18T01:59:06.557Z,102910.09
2022-10-18T02:01:40.000Z,102871.22
2022-10-18T02:04:42.549Z,102901.63
2022-10-18T02:07:42.658Z,102910.09
2022-10-18T02:10:25.812Z,102904.44
2022-10-18T02:12:55.395Z,102906.09
2022-10-18T02:15:30.046Z,102904.44
2022-10-18T02:17:57.736Z,102858.28
2022-10-18T02:20:29.105Z,102906.88
2022-10-18T02:22:59.773Z,102890.69
2022-10-18T02:25:30.625Z,102904.03
2022-10-18T02:27:58.534Z,102889.50
2022-10-18T02:30:33.881Z,102901.63
2022-10-18T02:33:12.911Z,102910.19
2022-10-18T02:35:54.333Z,102905.66
2022-10-18T02:38:25.493Z,102890.16
2022-10-18T02:40:52.875Z,102911.25
2022-10-18T02:43:19.980Z,102910.06
2022-10-18T02:45:47.321Z,102905.31
2022-10-18T02:48:14.582Z,102910.59
2022-10-18T02:50:41.708Z,102917.09
2022-10-18T02:53:08.809Z,102900.75
2022-10-18T02:55:36.118Z,102911.72
2022-10-18T02:58:03.249Z,102905.56
2022-10-18T03:00:30.416Z,102906.72
2022-10-18T03:02:57.628Z,102930.13
2022-10-18T03:05:24.728Z,102922.22
2022-10-18T03:07:51.963Z,102909.22
2022-10-18T03:10:19.067Z,102924.50
2022-10-18T03:12:46.415Z,102908.88
2022-10-18T03:15:13.837Z,102895.97
2022-10-18T03:17:41.110Z,102874.22
2022-10-18T03:20:08.673Z,102895.72
2022-10-18T03:22:35.866Z,102880.81
2022-10-18T03:25:03.175Z,102895.84
2022-10-18T03:27:30.712Z,102888.19
2022-10-18T03:29:59.274Z,102889.00
2022-10-18T03:32:26.401Z,102905.63
2022-10-18T03:34:53.586Z,102898.28
2022-10-18T03:37:20.736Z,102913.88
2022-10-18T03:39:47.865Z,102919.34
2022-10-18T03:42:14.977Z,102844.66
2022-10-18T03:44:42.100Z,102907.56
2022-10-18T03:47:09.292Z,102907.66
2022-10-18T03:49:36.498Z,102920.19
2022-10-18T03:52:03.692Z,102893.94
2022-10-18T03:54:31.265Z,102899.31
2022-10-18T03:56:58.537Z,102916.75
2022-10-18T03:59:25.599Z,102903.81
2022-10-18T04:01:52.975Z,102907.88
2022-10-18T04:04:20.469Z,102905.44
2022-10-18T04:06:47.600Z,102913.50
2022-10-18T04:09:14.834Z,102919.59
2022-10-18T04:11:42.043Z,102876.19
2022-10-18T04:14:09.096Z,102909.06
2022-10-18T04:19:08.664Z,102872.94
2022-10-18T04:21:35.948Z,102898.47
2022-10-18T04:24:03.197Z,102898.47
2022-10-18T04:26:30.302Z,102891.16
2022-10-18T04:28:57.594Z,102898.38
2022-10-18T04:31:24.668Z,102869.78
2022-10-18T04:33:52.529Z,102910.31
2022-10-18T04:36:19.839Z,102910.53
2022-10-18T04:38:47.364Z,102933.09
2022-10-18T04:41:15.229Z,102881.31
2022-10-18T04:43:43.290Z,102909.41
2022-10-18T04:46:10.519Z,102897.09
2022-10-18T04:48:37.800Z,102886.59
2022-10-18T04:51:05.007Z,102894.72
2022-10-18T04:53:32.708Z,102929.94
2022-10-18T04:55:59.958Z,102913.81
2022-10-18T04:58:27.347Z,102936.53
2022-10-18T05:00:54.513Z,102932.50
2022-10-18T05:03:21.743Z,102921.69
2022-10-18T05:06:04.288Z,102912.34
2022-10-18T05:08:34.543Z,102929.34
2022-10-18T05:11:02.548Z,102868.53
2022-10-18T05:13:30.551Z,102920.00
2022-10-18T05:15:59.551Z,102915.06
2022-10-18T05:18:27.012Z,102932.81
2022-10-18T05:20:54.096Z,102909.22
2022-10-18T05:23:39.740Z,102926.50
2022-10-18T05:26:08.019Z,102928.06
2022-10-18T05:28:40.376Z,102933.59
2022-10-18T05:31:09.507Z,102934.88
2022-10-18T05:33:36.675Z,102933.13
2022-10-18T05:36:04.614Z,102936.97
2022-10-18T05:38:31.921Z,102938.72
2022-10-18T05:40:59.948Z,102943.56
2022-10-18T05:43:30.531Z,102930.28
2022-10-18T05:45:57.909Z,102951.31
2022-10-18T05:48:25.208Z,102938.03
2022-10-18T05:50:52.883Z,102933.44
2022-10-18T05:53:37.140Z,102952.97
2022-10-18T05:56:05.050Z,102943.38
2022-10-18T05:58:32.467Z,102948.34
2022-10-18T06:01:01.712Z,102946.59
2022-10-18T06:03:30.935Z,102926.03
2022-10-18T06:06:10.137Z,102947.34
2022-10-18T06:08:38.857Z,102943.84
2022-10-18T06:11:10.714Z,102943.53
2022-10-18T06:13:46.023Z,102955.00
2022-10-18T06:16:14.677Z,102953.88
2022-10-18T06:18:42.292Z,102949.50
2022-10-18T06:21:10.244Z,102948.75
2022-10-18T06:23:37.501Z,102921.88
2022-10-18T06:26:07.578Z,102956.22
2022-10-18T06:28:36.418Z,102950.44
2022-10-18T06:31:05.297Z,102959.41
2022-10-18T06:33:33.941Z,102948.34
2022-10-18T06:36:04.297Z,102940.31
2022-10-18T06:38:31.986Z,102946.81
2022-10-18T06:41:00.060Z,102950.94
2022-10-18T06:43:27.635Z,102949.50
2022-10-18T06:45:55.314Z,102946.75
2022-10-18T06:48:22.778Z,102957.66
2022-10-18T06:50:57.191Z,102947.09
2022-10-18T06:53:32.287Z,102942.88
2022-10-18T06:56:05.184Z,102957.69
2022-10-18T06:58:33.557Z,102936.72
2022-10-18T07:01:06.668Z,102958.50
2022-10-18T07:03:35.129Z,102952.88
2022-10-18T07:06:03.623Z,102950.88
2022-10-18T07:08:31.350Z,102939.72
2022-10-18T07:10:58.846Z,102933.06
2022-10-18T07:13:32.420Z,102885.75
2022-10-18T07:16:11.547Z,102953.44
2022-10-18T07:18:49.790Z,102946.97
2022-10-18T07:21:19.426Z,102950.59
2022-10-18T07:23:47.425Z,102946.50
2022-10-18T07:26:17.855Z,102941.16
2022-10-18T07:28:48.031Z,102928.97
2022-10-18T07:31:15.728Z,102950.38
2022-10-18T07:33:45.569Z,102931.69
2022-10-18T07:36:13.651Z,102891.16
2022-10-18T07:38:41.548Z,102929.91
2022-10-18T07:41:12.480Z,102889.31
2022-10-18T07:43:48.962Z,102922.69
2022-10-18T07:46:17.372Z,102901.28
2022-10-18T07:48:44.833Z,102925.81
2022-10-18T07:51:12.337Z,102917.91
2022-10-18T07:53:39.830Z,102877.47
2022-10-18T07:56:15.851Z,102923.38
2022-10-18T07:58:47.894Z,102891.19
2022-10-18T08:01:15.837Z,102918.16
2022-10-18T08:03:43.900Z,102906.63
2022-10-18T08:06:13.072Z,102912.28
2022-10-18T08:08:41.242Z,102901.06
2022-10-18T08:11:11.924Z,102877.13
2022-10-18T08:13:39.401Z,102908.84
2022-10-18T08:16:12.294Z,102878.53
2022-10-18T08:18:39.399Z,102880.44
2022-10-18T08:21:08.833Z,102906.81
2022-10-18T08:23:36.395Z,102908.81
2022-10-18T08:26:06.392Z,102902.63
2022-10-18T08:28:37.030Z,102851.22
2022-10-18T08:31:06.727Z,102856.41
2022-10-18T08:33:34.972Z,102850.47
2022-10-18T08:36:05.961Z,102858.28
2022-10-18T08:38:38.107Z,102883.00
2022-10-18T08:41:32.949Z,102884.88
2022-10-18T08:44:17.597Z,102875.84
2022-10-18T08:46:49.387Z,102877.47
2022-10-18T08:49:29.439Z,102845.56
2022-10-18T08:51:58.284Z,102870.00
2022-10-18T08:54:40.119Z,102865.09
2022-10-18T08:57:15.257Z,102827.25
2022-10-18T08:59:42.610Z,102859.88
2022-10-18T09:02:32.077Z,102851.94
2022-10-18T09:05:22.787Z,102854.06
2022-10-18T09:07:58.994Z,102850.91
2022-10-18T09:10:50.619Z,102848.69
2022-10-18T09:13:53.221Z,102837.50
2022-10-18T09:16:31.608Z,102831.03
2022-10-18T09:19:22.706Z,102805.75
2022-10-18T09:21:54.203Z,102833.16
2022-10-18T09:24:38.867Z,102755.59
2022-10-18T09:27:21.414Z,102819.34
2022-10-18T09:30:19.078Z,102817.69
2022-10-18T09:33:20.086Z,102732.44
2022-10-18T09:35:58.018Z,102808.69
2022-10-18T09:38:31.674Z,102822.09
2022-10-18T09:41:17.609Z,102809.38
2022-10-18T09:44:00.673Z,102813.97
2022-10-18T09:46:32.538Z,102813.84
2022-10-18T09:49:31.662Z,102811.31
2022-10-18T09:52:03.976Z,102780.03
2022-10-18T09:54:56.308Z,102811.00
2022-10-18T09:57:32.606Z,102793.53
2022-10-18T10:00:01.883Z,102780.13
2022-10-18T10:02:32.309Z,102756.16
2022-10-18T10:04:59.526Z,102757.56
2022-10-18T10:07:36.344Z,102770.81
2022-10-18T10:10:15.952Z,102777.63
2022-10-18T10:12:44.225Z,102770.09
2022-10-18T10:15:23.517Z,102765.47
2022-10-18T10:18:02.314Z,102754.94
2022-10-18T10:20:47.326Z,102752.16
2022-10-18T10:23:26.460Z,102738.13
2022-10-18T10:25:56.792Z,102725.41
2022-10-18T10:28:28.863Z,102688.50
2022-10-18T10:31:18.605Z,102734.44
2022-10-18T10:33:47.784Z,102724.84
2022-10-18T10:36:21.282Z,102721.69
2022-10-18T10:39:06.317Z,102698.38
2022-10-18T10:41:34.871Z,102701.28
2022-10-18T10:44:14.490Z,102688.53
2022-10-18T10:46:42.088Z,102691.00
2022-10-18T10:49:39.775Z,102683.31
2022-10-18T10:52:33.747Z,102691.78
2022-10-18T10:55:23.622Z,102667.03
2022-10-18T10:57:52.512Z,102658.06
2022-10-18T11:00:36.658Z,102625.28
2022-10-18T11:03:34.531Z,102645.34
2022-10-18T11:06:02.040Z,102636.25
2022-10-18T11:08:39.085Z,102628.56
2022-10-18T11:11:31.631Z,102623.44
2022-10-18T11:14:26.928Z,102627.41
2022-10-18T11:17:08.182Z,102624.47
2022-10-18T11:19:44.604Z,102626.34
2022-10-18T11:22:18.716Z,102617.59
2022-10-18T11:24:46.085Z,102605.56
2022-10-18T11:27:29.406Z,102597.78
2022-10-18T11:30:33.997Z,102594.00
2022-10-18T11:33:56.230Z,102591.66
2022-10-18T11:36:49.475Z,102578.75
2022-10-18T11:39:41.294Z,102573.72
2022-10-18T11:42:39.143Z,102485.72
2022-10-18T11:45:25.685Z,102545.16
2022-10-18T11:48:20.917Z,102543.09
2022-10-18T11:50:55.503Z,102523.47
2022-10-18T11:53:52.038Z,102549.19
2022-10-18T11:56:28.779Z,102531.50
2022-10-18T11:59:11.052Z,102528.00
2022-10-18T12:01:49.655Z,102520.63
2022-10-18T12:04:49.058Z,102513.78
2022-10-18T12:07:34.039Z,102509.09
2022-10-18T12:10:03.251Z,102508.59
2022-10-18T12:12:36.989Z,102508.72
2022-10-18T12:15:13.463Z,102497.16
2022-10-18T12:17:49.089Z,102487.97
2022-10-18T12:20:26.234Z,102489.00
2022-10-18T12:23:04.015Z,102480.09
2022-10-18T12:25:36.503Z,102475.44
2022-10-18T12:28:25.672Z,102476.06
2022-10-18T12:30:58.877Z,102474.41
2022-10-18T12:33:35.752Z,102466.88
2022-10-18T12:36:21.182Z,102460.66
2022-10-18T12:38:58.338Z,102458.22
2022-10-18T12:41:47.560Z,102453.28
2022-10-18T12:44:23.867Z,102452.41
2022-10-18T12:46:58.130Z,102444.19
2022-10-18T12:49:30.297Z,102401.34
2022-10-18T12:52:06.810Z,102411.50
2022-10-18T12:54:36.752Z,102435.00
2022-10-18T12:57:06.866Z,102426.69
2022-10-18T12:59:33.887Z,102437.94
2022-10-18T13:02:01.198Z,102434.13
2022-10-18T13:04:28.425Z,102418.44
2022-10-18T13:06:59.364Z,102419.88
2022-10-18T13:09:35.777Z,102420.19
2022-10-18T13:12:13.091Z,102417.00
2022-10-18T13:15:00.569Z,102409.66
2022-10-18T13:18:03.160Z,102411.47
2022-10-18T13:21:08.969Z,102414.03
2022-10-18T13:24:04.006Z,102368.41
2022-10-18T13:26:54.082Z,102396.78
2022-10-18T13:29:55.968Z,102382.09
2022-10-18T13:32:47.494Z,102386.63
2022-10-18T13:35:57.495Z,102387.69
2022-10-18T13:38:28.185Z,102374.00
2022-10-18T13:41:07.801Z,102383.22
2022-10-18T13:43:53.556Z,102368.84
2022-10-18T13:46:33.549Z,102362.31
2022-10-18T13:49:22.703Z,102362.06
2022-10-18T13:52:12.333Z,102360.25
2022-10-18T13:55:16.558Z,102353.41
2022-10-18T13:57:56.727Z,102346.88
2022-10-18T14:00:55.079Z,102345.53
2022-10-18T14:04:08.180Z,102348.97
2022-10-18T14:06:43.300Z,102335.97
2022-10-18T14:12:21.958Z,102337.34
2022-10-18T14:14:54.444Z,102333.41
2022-10-18T14:17:27.595Z,102330.53
2022-10-18T14:20:28.581Z,102325.28
2022-10-18T14:23:05.683Z,102319.75
2022-10-18T14:25:36.105Z,102315.78
2022-10-18T14:28:27.357Z,102318.44
2022-10-18T14:31:11.835Z,102313.91
2022-10-18T14:33:41.265Z,102268.13
2022-10-18T14:36:22.803Z,102303.16
2022-10-18T14:38:49.962Z,102299.44
2022-10-18T14:41:20.079Z,102299.09
2022-10-18T14:43:48.654Z,102294.53
2022-10-18T14:46:24.166Z,102294.97
2022-10-18T14:49:02.429Z,102291.94
2022-10-18T14:51:35.798Z,102270.34
2022-10-18T14:54:03.495Z,102290.16
2022-10-18T14:56:37.060Z,102288.75
2022-10-18T14:59:05.921Z,102289.19
2022-10-18T15:01:33.328Z,102283.72
2022-10-18T15:04:05.730Z,102275.34
2022-10-18T15:06:33.715Z,102261.88
2022-10-18T15:09:04.403Z,102281.59
2022-10-18T15:11:32.421Z,102236.63
2022-10-18T15:14:08.940Z,102282.25
2022-10-18T15:16:38.998Z,102275.09
2022-10-18T15:19:15.324Z,102279.31
2022-10-18T15:22:19.682Z,102283.94
2022-10-18T15:25:03.039Z,102267.31
2022-10-18T15:27:33.613Z,102247.28
2022-10-18T15:30:38.942Z,102262.75
2022-10-18T15:33:10.756Z,102267.16
2022-10-18T15:35:39.373Z,102264.09
2022-10-18T15:38:25.635Z,102231.31
2022-10-18T15:40:53.265Z,102261.31
2022-10-18T15:43:23.588Z,102247.81
2022-10-18T15:45:53.960Z,102243.53
2022-10-18T15:48:33.208Z,102253.41
2022-10-18T15:51:04.916Z,102242.28
2022-10-18T15:53:33.396Z,102251.94
2022-10-18T15:56:27.992Z,102251.63
2022-10-18T15:58:57.488Z,102221.69
2022-10-18T16:01:58.296Z,102210.22
2022-10-18T16:04:27.953Z,102248.94
2022-10-18T16:06:56.122Z,102231.50
2022-10-18T16:09:25.626Z,102211.50
2022-10-18T16:11:56.744Z,102249.84
2022-10-18T16:14:26.531Z,102248.63
2022-10-18T16:17:00.909Z,102228.28
2022-10-18T16:19:28.256Z,102247.13
2022-10-18T16:22:03.646Z,102248.63
2022-10-18T16:24:39.985Z,102212.53
2022-10-18T16:27:15.323Z,102190.31
2022-10-18T16:30:30.377Z,102241.59
2022-10-18T16:32:57.570Z,102234.44
2022-10-18T16:38:36.035Z,102242.34
2022-10-18T16:48:51.534Z,102239.69
2022-10-18T16:51:24.721Z,102160.41
2022-10-18T16:58:14.509Z,102210.66
2022-10-18T17:00:42.249Z,102224.81
2022-10-18T17:03:12.735Z,102240.59
2022-10-18T17:05:49.425Z,102196.34
2022-10-18T17:08:23.222Z,102202.75
2022-10-18T17:10:57.871Z,102177.31
2022-10-18T17:13:28.903Z,102195.31
2022-10-18T17:19:36.482Z,102206.56
2022-10-18T17:22:04.031Z,102229.03
2022-10-18T17:24:31.508Z,102240.84
2022-10-18T17:26:58.898Z,102244.28
2022-10-18T17:29:26.037Z,102192.72
2022-10-18T17:31:54.309Z,102230.75
2022-10-18T17:34:21.701Z,102245.56
2022-10-18T17:36:49.131Z,102211.22
2022-10-18T17:39:16.346Z,102226.38
2022-10-18T17:41:43.694Z,102192.50
2022-10-18T17:44:14.305Z,102205.81
2022-10-18T17:46:42.275Z,102221.41
2022-10-18T17:49:10.082Z,102178.34
2022-10-18T17:51:37.353Z,102229.53
2022-10-18T17:54:05.928Z,102226.09
2022-10-18T17:56:35.995Z,102213.63
2022-10-18T17:59:03.440Z,102223.47
2022-10-18T18:01:30.784Z,102150.03
2022-10-18T18:03:59.975Z,102212.84
2022-10-18T18:06:34.301Z,102172.50
2022-10-18T18:09:07.537Z,102210.09
2022-10-18T18:11:36.920Z,102174.94
2022-10-18T18:14:09.010Z,102196.28
2022-10-18T18:16:42.319Z,102200.63
2022-10-18T18:19:10.294Z,102187.84
2022-10-18T18:21:41.249Z,102191.25
2022-10-18T18:24:10.401Z,102147.44
2022-10-18T18:26:38.733Z,102134.63
2022-10-18T18:29:06.224Z,102192.16
2022-10-18T18:31:38.786Z,102158.84
2022-10-18T18:34:09.914Z,102144.09
2022-10-18T18:36:37.408Z,102185.34
2022-10-18T18:39:08.326Z,102160.09
2022-10-18T18:41:38.618Z,102175.72
2022-10-18T18:44:06.370Z,102192.31
2022-10-18T18:46:38.718Z,102190.56
2022-10-18T18:49:07.464Z,102185.31
2022-10-18T18:51:38.185Z,102197.53
2022-10-18T18:54:05.708Z,102145.50
2022-10-18T18:56:33.406Z,102147.31
2022-10-18T18:59:01.695Z,102195.34
2022-10-18T19:01:31.788Z,102190.25
2022-10-18T19:03:59.845Z,102198.47
2022-10-18T19:06:38.878Z,102194.94
2022-10-18T19:09:22.620Z,102188.41
2022-10-18T19:11:53.040Z,102147.16
2022-10-18T19:16:53.839Z,102135.03
2022-10-18T19:19:23.826Z,102169.31
2022-10-18T19:21:56.855Z,102194.69
2022-10-18T19:24:26.360Z,102152.81
2022-10-18T19:27:05.733Z,102184.00
2022-10-18T19:29:35.758Z,102186.16
2022-10-18T19:32:06.301Z,102165.34
2022-10-18T19:34:34.824Z,102167.84
2022-10-18T19:37:02.381Z,102147.00
2022-10-18T19:39:34.772Z,102149.97
2022-10-18T19:42:06.109Z,102173.53
2022-10-18T19:44:36.139Z,102169.78
2022-10-18T19:47:05.176Z,102161.78
2022-10-18T19:49:32.909Z,102160.06
2022-10-18T19:52:00.349Z,102099.34
2022-10-18T19:54:28.008Z,102129.84
2022-10-18T19:56:55.482Z,102159.38
2022-10-18T19:59:24.200Z,102156.88
2022-10-18T20:01:51.737Z,102152.19
2022-10-18T20:04:19.152Z,102162.06
2022-10-18T20:07:03.294Z,102114.13
2022-10-18T20:09:30.932Z,102137.41
2022-10-18T20:12:08.530Z,102177.25
2022-10-18T20:14:36.000Z,102120.75
2022-10-18T20:17:03.408Z,102069.34
2022-10-18T20:19:31.131Z,102163.00
2022-10-18T20:21:58.433Z,102144.78
2022-10-18T20:24:26.083Z,102140.25
2022-10-18T20:29:25.462Z,102141.63
2022-10-18T20:32:12.183Z,102152.59
2022-10-18T20:34:39.651Z,102104.72
2022-10-18T20:37:07.219Z,102145.41
2022-10-18T20:39:35.416Z,102143.75
2022-10-18T20:42:02.962Z,102127.63
2022-10-18T20:44:33.789Z,102114.41
2022-10-18T20:47:01.105Z,102078.09
2022-10-18T20:49:28.673Z,102129.97
2022-10-18T20:51:56.053Z,102128.28
2022-10-18T20:54:23.479Z,102085.13
2022-10-18T20:56:50.878Z,102081.00
2022-10-18T20:59:18.410Z,102109.38
2022-10-18T21:01:51.685Z,102110.38
2022-10-18T21:04:19.245Z,102109.19
2022-10-18T21:06:46.662Z,102111.25
2022-10-18T21:09:16.691Z,102103.81
2022-10-18T21:11:46.747Z,102100.97
2022-10-18T21:14:16.910Z,102091.16
2022-10-18T21:16:45.126Z,102086.72
2022-10-18T21:19:19.544Z,102092.81
2022-10-18T21:21:50.492Z,102092.31
2022-10-18T21:24:22.155Z,102087.88
2022-10-18T21:26:49.957Z,102072.69
2022-10-18T21:29:21.875Z,102078.47
2022-10-18T21:31:50.096Z,102073.09
2022-10-18T21:34:18.166Z,102072.56
2022-10-18T21:36:46.926Z,102032.47
2022-10-18T21:39:16.884Z,102066.66
2022-10-18T21:41:45.314Z,102060.97
2022-10-18T21:44:13.167Z,102059.19
2022-10-18T21:46:43.002Z,102055.53
2022-10-18T21:49:11.279Z,102048.00
2022-10-18T21:51:39.203Z,101993.75
2022-10-18T21:54:15.195Z,102043.06
2022-10-18T21:56:42.964Z,102045.41
2022-10-18T21:59:14.161Z,102036.22
2022-10-18T22:01:43.702Z,102009.56
2022-10-18T22:04:25.154Z,102026.13
2022-10-18T22:06:52.695Z,102032.09
2022-10-18T22:09:21.553Z,102023.94
2022-10-18T22:11:52.051Z,102023.09
2022-10-18T22:14:19.899Z,102013.03
2022-10-18T22:16:47.565Z,102016.69
2022-10-18T22:19:15.325Z,101993.41
2022-10-18T22:21:42.837Z,102024.47
2022-10-18T22:24:16.570Z,101989.84
2022-10-18T22:26:45.431Z,101985.09
2022-10-18T22:29:15.389Z,102016.72
2022-10-18T22:31:45.684Z,102005.34
2022-10-18T22:34:16.232Z,101979.09
2022-10-18T22:36:44.093Z,102012.19
2022-10-18T22:39:14.488Z,101905.38
2022-10-18T22:41:42.676Z,101995.38
2022-10-18T22:44:15.147Z,101984.78
2022-10-18T22:46:43.063Z,101990.69
2022-10-18T22:49:11.567Z,101987.41
2022-10-18T22:51:39.937Z,101981.84
2022-10-18T22:54:07.611Z,101956.78
2022-10-18T22:56:35.312Z,101998.94
2022-10-18T22:59:02.966Z,101985.31
2022-10-18T23:01:30.468Z,101973.38
2022-10-18T23:04:00.344Z,101931.31
2022-10-18T23:06:33.803Z,101982.97
2022-10-18T23:09:05.156Z,101956.34
2022-10-18T23:11:33.996Z,101982.69
2022-10-18T23:14:03.145Z,101921.75
2022-10-18T23:16:31.435Z,101994.63
2022-10-18T23:18:59.622Z,101979.06
2022-10-18T23:21:28.439Z,101952.84
2022-10-18T23:23:57.604Z,101971.91
2022-10-18T23:26:26.945Z,101943.06
2022-10-18T23:28:55.463Z,101972.19
2022-10-18T23:31:29.118Z,101963.41
2022-10-18T23:34:00.711Z,101933.34
2022-10-18T23:36:29.034Z,101937.91
2022-10-18T23:38:56.669Z,101959.88
2022-10-18T23:41:24.519Z,101970.78
2022-10-18T23:43:52.114Z,101871.00
2022-10-18T23:46:20.451Z,101960.63
2022-10-18T23:48:49.082Z,101950.94
2022-10-18T23:51:17.553Z,101951.75
2022-10-18T23:53:44.931Z,101903.56
2022-10-18T23:56:15.143Z,101908.00
2022-10-18T23:58:43.795Z,101948.06
